Map

Track Data

SID SEASON NUMBER BASIN SUBBASIN NAME ISO_TIME NATURE LAT LON WMO_WIND WMO_PRES WMO_AGENCY TRACK_TYPE DIST2LAND LANDFALL IFLAG USA_AGENCY USA_ATCF_ID USA_LAT USA_LON USA_RECORD USA_STATUS USA_WIND USA_PRES USA_SSHS USA_R34_NE USA_R34_SE USA_R34_SW USA_R34_NW USA_R50_NE USA_R50_SE USA_R50_SW USA_R50_NW USA_R64_NE USA_R64_SE USA_R64_SW USA_R64_NW USA_POCI USA_ROCI USA_RMW USA_EYE TOKYO_LAT TOKYO_LON TOKYO_GRADE TOKYO_WIND TOKYO_PRES TOKYO_R50_DIR TOKYO_R50_LONG TOKYO_R50_SHORT TOKYO_R30_DIR TOKYO_R30_LONG TOKYO_R30_SHORT TOKYO_LAND CMA_LAT CMA_LON CMA_CAT CMA_WIND CMA_PRES HKO_LAT HKO_LON HKO_CAT HKO_WIND HKO_PRES NEWDELHI_LAT NEWDELHI_LON NEWDELHI_GRADE NEWDELHI_WIND NEWDELHI_PRES NEWDELHI_CI NEWDELHI_DP NEWDELHI_POCI REUNION_LAT REUNION_LON REUNION_TYPE REUNION_WIND REUNION_PRES REUNION_TNUM REUNION_CI REUNION_RMW REUNION_R34_NE REUNION_R34_SE REUNION_R34_SW REUNION_R34_NW REUNION_R50_NE REUNION_R50_SE REUNION_R50_SW REUNION_R50_NW REUNION_R64_NE REUNION_R64_SE REUNION_R64_SW REUNION_R64_NW BOM_LAT BOM_LON BOM_TYPE BOM_WIND BOM_PRES BOM_TNUM BOM_CI BOM_RMW BOM_R34_NE BOM_R34_SE BOM_R34_SW BOM_R34_NW BOM_R50_NE BOM_R50_SE BOM_R50_SW BOM_R50_NW BOM_R64_NE BOM_R64_SE BOM_R64_SW BOM_R64_NW BOM_ROCI BOM_POCI BOM_EYE BOM_POS_METHOD BOM_PRES_METHOD NADI_LAT NADI_LON NADI_CAT NADI_WIND NADI_PRES WELLINGTON_LAT WELLINGTON_LON WELLINGTON_WIND WELLINGTON_PRES DS824_LAT DS824_LON DS824_STAGE DS824_WIND DS824_PRES TD9636_LAT TD9636_LON TD9636_STAGE TD9636_WIND TD9636_PRES TD9635_LAT TD9635_LON TD9635_WIND TD9635_PRES TD9635_ROCI NEUMANN_LAT NEUMANN_LON NEUMANN_CLASS NEUMANN_WIND NEUMANN_PRES MLC_LAT MLC_LON MLC_CLASS MLC_WIND MLC_PRES USA_GUST BOM_GUST BOM_GUST_PER REUNION_GUST REUNION_GUST_PER USA_SEAHGT USA_SEARAD_NE USA_SEARAD_SE USA_SEARAD_SW USA_SEARAD_NW STORM_SPEED STORM_DIR
1974263N16071 1974 107 NI AS NOT_NAMED 1974-09-19 12:00:00 TS 16.1000 70.9000 main 260 258 O________OO___ jtwc_io IO071974 16.1000 70.9000 -1 16.1000 70.9000 TC 25 16.1000 70.9000 1 2 0
1974263N16071 1974 107 NI AS NOT_NAMED 1974-09-19 15:00:00 TS 16.1980 70.8989 main 258 257 P________PP___ IO071974 16.2025 70.9100 -1 16.2025 70.9100 TC 25 16.1891 70.8766 1 2 0
1974263N16071 1974 107 NI AS NOT_NAMED 1974-09-19 18:00:00 TS 16.2942 70.8842 main 257 256 O________OP___ jtwc_io IO071974 16.3000 70.9000 -1 16.3000 70.9000 TC 25 16.2825 70.8526 1 2 342
1974263N16071 1974 107 NI AS NOT_NAMED 1974-09-19 21:00:00 TS 16.3899 70.8474 main 266 266 P________PP___ IO071974 16.3925 70.8575 -1 16.3925 70.8575 TC 25 16.3847 70.8272 1 2 339
1974263N16071 1974 107 NI AS NOT_NAMED 1974-09-20 00:00:00 TS 16.5000 70.8000 main 266 266 O________OO___ jtwc_io IO071974 16.5000 70.8000 -1 16.5000 70.8000 TC 25 16.5000 70.8000 1 3 340
1974263N16071 1974 107 NI AS NOT_NAMED 1974-09-20 03:00:00 TS 16.6388 70.7564 main 266 264 P________PP___ IO071974 16.6425 70.7500 -1 16.6425 70.7500 TC 25 16.6315 70.7693 1 3 343
1974263N16071 1974 107 NI AS NOT_NAMED 1974-09-20 06:00:00 TS 16.7925 70.7100 main 270 266 O________OP___ jtwc_io IO071974 16.8000 70.7000 -1 16.8000 70.7000 TC 25 16.7775 70.7299 1 3 344
1974263N16071 1974 107 NI AS NOT_NAMED 1974-09-20 09:00:00 TS 16.9449 70.6635 main 266 263 P________PP___ IO071974 16.9500 70.6575 -1 16.9500 70.6575 TC 25 16.9346 70.6755 1 3 342
1974263N16071 1974 107 NI AS NOT_NAMED 1974-09-20 12:00:00 TS 17.1000 70.6000 main 271 268 O________OO___ jtwc_io IO071974 17.1000 70.6000 -1 17.1000 70.6000 TC 25 17.1000 70.6000 1 3 334
1974263N16071 1974 107 NI AS NOT_NAMED 1974-09-20 15:00:00 TS 17.2496 70.5088 main 277 273 P________PP___ IO071974 17.2425 70.5150 -1 17.2425 70.5150 TC 25 17.2638 70.4966 1 4 328
1974263N16071 1974 107 NI AS NOT_NAMED 1974-09-20 18:00:00 TS 17.4117 70.3908 main 279 275 O________OP___ jtwc_io IO071974 17.4000 70.4000 -1 17.4000 70.4000 TC 25 17.4350 70.3725 1 4 325
1974263N16071 1974 107 NI AS NOT_NAMED 1974-09-20 21:00:00 TS 17.5996 70.2458 main 293 291 P________PP___ IO071974 17.5925 70.2500 -1 17.5925 70.2500 TC 25 17.6138 70.2372 1 5 325
1974263N16071 1974 107 NI AS NOT_NAMED 1974-09-21 00:00:00 TS 17.8000 70.1000 main 299 297 O________OO___ jtwc_io IO071974 17.8000 70.1000 -1 17.8000 70.1000 TC 25 17.8000 70.1000 1 5 330
1974263N16071 1974 107 NI AS NOT_NAMED 1974-09-21 03:00:00 TS 17.9989 70.0023 main 307 295 P________PP___ IO071974 18.0000 69.9999 -1 18.0000 69.9999 TC 25 17.9966 70.0072 1 4 335
1974263N16071 1974 107 NI AS NOT_NAMED 1974-09-21 06:00:00 TS 18.1999 69.9032 main 295 277 O________OP___ jtwc_io IO071974 18.2000 69.9000 -1 18.2000 69.9000 TC 25 18.1996 69.9095 1 5 332
1974263N16071 1974 107 NI AS NOT_NAMED 1974-09-21 09:00:00 TS 18.4059 69.7757 main 277 266 P________PP___ IO071974 18.4075 69.7725 -1 18.4075 69.7725 TC 30 18.4028 69.7821 1 5 324
1974263N16071 1974 107 NI AS NOT_NAMED 1974-09-21 12:00:00 TS 18.6000 69.6000 main 266 258 O________OO___ jtwc_io IO071974 18.6000 69.6000 -1 18.6000 69.6000 TC 35 18.6000 69.6000 2 5 313
1974263N16071 1974 107 NI AS NOT_NAMED 1974-09-21 15:00:00 TS 18.7606 69.3758 main 258 258 P________PP___ IO071974 18.7499 69.3874 -1 18.7499 69.3874 TC 35 18.7821 69.3527 2 6 303
1974263N16071 1974 107 NI AS NOT_NAMED 1974-09-21 18:00:00 TS 18.9191 69.0824 main 267 264 O________OP___ jtwc_io IO071974 18.9000 69.1000 -1 18.9000 69.1000 TC 35 18.9573 69.0473 2 7 299
1974263N16071 1974 107 NI AS NOT_NAMED 1974-09-21 21:00:00 TS 19.1096 68.7178 main 273 270 P________PP___ IO071974 19.1000 68.7300 -1 19.1000 68.7300 TC 35 19.1288 68.6932 2 8 297
1974263N16071 1974 107 NI AS NOT_NAMED 1974-09-22 00:00:00 TS 19.3000 68.3000 main 282 282 O________OO___ jtwc_io IO071974 19.3000 68.3000 -1 19.3000 68.3000 TC 35 19.3000 68.3000 2 9 293
1974263N16071 1974 107 NI AS NOT_NAMED 1974-09-22 03:00:00 TS 19.4612 67.8521 main 297 297 P________PP___ IO071974 19.4499 67.8573 -1 19.4499 67.8573 TC 35 19.4838 67.8416 2 9 290
1974263N16071 1974 107 NI AS NOT_NAMED 1974-09-22 06:00:00 TS 19.6220 67.3852 main 327 327 O________OP___ jtwc_io IO071974 19.6000 67.4000 -1 19.6000 67.4000 TC 35 19.6660 67.3556 2 10 292
1974263N16071 1974 107 NI AS NOT_NAMED 1974-09-22 09:00:00 TS 19.8134 66.9056 main 348 345 P________PP___ IO071974 19.8001 66.9126 -1 19.8001 66.9126 TC 35 19.8401 66.8917 2 9 294
1974263N16071 1974 107 NI AS NOT_NAMED 1974-09-22 12:00:00 TS 20.0000 66.5000 main 357 357 O________OO___ jtwc_io IO071974 20.0000 66.5000 -1 20.0000 66.5000 TC 35 20.0000 66.5000 2 7 299
1974263N16071 1974 107 NI AS NOT_NAMED 1974-09-22 15:00:00 TS 20.1547 66.2598 main 357 357 P________PP___ IO071974 20.1648 66.2549 -1 20.1648 66.2549 TC 35 20.1344 66.2696 2 5 308
1974263N16071 1974 107 NI AS NOT_NAMED 1974-09-22 18:00:00 TS 20.2854 66.1038 main 366 366 O________OP___ jtwc_io IO071974 20.3000 66.1000 -1 20.3000 66.1000 TC 35 20.2563 66.1115 2 4 311
1974263N16071 1974 107 NI AS NOT_NAMED 1974-09-22 21:00:00 TS 20.3916 65.9725 main 367 367 P________PP___ IO071974 20.3999 65.9723 -1 20.3999 65.9723 TC 35 20.3751 65.9728 2 4 307
1974263N16071 1974 107 NI AS NOT_NAMED 1974-09-23 00:00:00 TS 20.5000 65.8000 main 378 378 O________OO___ jtwc_io IO071974 20.5000 65.8000 -1 20.5000 65.8000 TC 35 20.5000 65.8000 2 5 299
1974263N16071 1974 107 NI AS NOT_NAMED 1974-09-23 03:00:00 TS 20.6469 65.4798 main 399 394 P________PP___ IO071974 20.6426 65.4726 -1 20.6426 65.4726 TC 30 20.6554 65.4941 2 7 296
1974263N16071 1974 107 NI AS NOT_NAMED 1974-09-23 06:00:00 TS 20.8052 65.1169 main 422 420 O________OP___ jtwc_io IO071974 20.8000 65.1000 -1 20.8000 65.1000 TC 25 20.8156 65.1506 2 7 296
1974263N16071 1974 107 NI AS NOT_NAMED 1974-09-23 09:00:00 TS 20.9610 64.7822 main 425 425 P________PP___ IO071974 20.9575 64.7700 -1 20.9575 64.7700 TC 25 20.9679 64.8066 2 6 297
1974263N16071 1974 107 NI AS NOT_NAMED 1974-09-23 12:00:00 TS 21.1000 64.5000 main 438 438 O________OO___ jtwc_io IO071974 21.1000 64.5000 -1 21.1000 64.5000 TC 25 21.1000 64.5000 1 5 300
1974263N16071 1974 107 NI AS NOT_NAMED 1974-09-23 15:00:00 TS 21.2100 64.3185 main 446 436 P________PP___ IO071974 21.2149 64.3349 -1 21.2149 64.3349 TC 25 21.2002 64.2856 1 4 302
1974263N16071 1974 107 NI AS NOT_NAMED 1974-09-23 18:00:00 TS 21.2932 64.1707 main 436 426 O________OP___ jtwc_io IO071974 21.3000 64.2000 -1 21.3000 64.2000 TC 25 21.2795 64.1121 1 3 295
1974263N16071 1974 107 NI AS NOT_NAMED 1974-09-23 21:00:00 TS 21.3530 63.9908 main 426 422 P________PP___ IO071974 21.3575 64.0075 -1 21.3575 64.0075 TC 25 21.3441 63.9576 1 4 287
1974263N16071 1974 107 NI AS NOT_NAMED 1974-09-24 00:00:00 TS 21.4000 63.8000 main 422 402 O________OO___ jtwc_io IO071974 21.4000 63.8000 -1 21.4000 63.8000 TC 25 21.4000 63.8000 1 4 285
1974263N16071 1974 107 NI AS NOT_NAMED 1974-09-24 03:00:00 TS 21.4508 63.6073 main 399 379 P________PP___ IO071974 21.4500 63.6000 -1 21.4500 63.6000 TC 25 21.4525 63.6221 1 4 285
1974263N16071 1974 107 NI AS NOT_NAMED 1974-09-24 06:00:00 TS 21.5010 63.4084 main 379 359 O________OP___ jtwc_io IO071974 21.5000 63.4000 -1 21.5000 63.4000 TC 25 21.5029 63.4253 1 4 285
1974263N16071 1974 107 NI AS NOT_NAMED 1974-09-24 09:00:00 TS 21.5507 63.2053 main 357 336 P________PP___ IO071974 21.5500 63.2000 -1 21.5500 63.2000 TC 25 21.5519 63.2158 1 4 285
1974263N16071 1974 107 NI AS NOT_NAMED 1974-09-24 12:00:00 TS 21.6000 63.0000 main 336 O________OO___ jtwc_io IO071974 21.6000 63.0000 -1 21.6000 63.0000 TC 25 21.6000 63.0000 6 4 284

About IBTrACS Database

This database is a web-friendly format of International Best Track Archive for Climate Stewardship (IBTrACS), a global best track data archive curated by NOAA dating back to 1842.

Updated: 2021-11-26